createdAt,value
2022-08-28T00:00:49.930Z,101587.38
2022-08-28T00:05:51.492Z,101576.09
2022-08-28T00:10:54.056Z,101587.69
2022-08-28T00:16:00.725Z,101580.03
2022-08-28T00:21:02.873Z,101584.44
2022-08-28T00:26:04.555Z,101582.19
2022-08-28T00:31:08.113Z,101590.06
2022-08-28T00:36:11.297Z,101589.53
2022-08-28T00:41:12.862Z,101584.53
2022-08-28T00:46:23.651Z,101578.50
2022-08-28T00:51:44.251Z,101579.38
2022-08-28T00:56:47.595Z,101589.13
2022-08-28T01:01:54.782Z,101579.69
2022-08-28T01:06:57.998Z,101577.06
2022-08-28T01:12:06.582Z,101574.38
2022-08-28T01:17:09.828Z,101583.38
2022-08-28T01:22:20.741Z,101588.81
2022-08-28T01:27:23.986Z,101594.28
2022-08-28T01:32:38.392Z,101598.66
2022-08-28T01:37:41.050Z,101596.28
2022-08-28T01:42:43.961Z,101593.69
2022-08-28T01:47:46.742Z,101595.63
2022-08-28T01:52:48.561Z,101579.31
2022-08-28T01:57:53.738Z,101604.66
2022-08-28T02:02:57.309Z,101605.53
2022-08-28T02:08:00.989Z,101599.50
2022-08-28T02:13:05.115Z,101605.63
2022-08-28T02:18:07.146Z,101597.09
2022-08-28T02:23:09.809Z,101601.59
2022-08-28T02:28:11.581Z,101606.88
2022-08-28T02:33:13.310Z,101606.06
2022-08-28T02:38:15.329Z,101597.41
2022-08-28T02:43:17.389Z,101593.16
2022-08-28T02:48:19.026Z,101599.25
2022-08-28T02:53:22.547Z,101595.97
2022-08-28T02:58:26.808Z,101595.97
2022-08-28T03:03:31.074Z,101595.97
2022-08-28T03:08:33.146Z,101594.25
2022-08-28T03:13:35.356Z,101597.72
2022-08-28T03:18:37.250Z,101589.97
2022-08-28T03:23:39.040Z,101589.97
2022-08-28T03:28:47.110Z,101596.06
2022-08-28T03:33:50.289Z,101588.22
2022-08-28T03:38:53.981Z,101587.44
2022-08-28T03:43:57.387Z,101593.47
2022-08-28T03:49:01.393Z,101585.78
2022-08-28T03:54:04.440Z,101580.84
2022-08-28T03:59:05.996Z,101588.69
2022-08-28T04:04:07.605Z,101588.69
2022-08-28T04:09:09.208Z,101594.03
2022-08-28T04:14:11.795Z,101584.44
2022-08-28T04:19:13.377Z,101586.25
2022-08-28T04:24:14.971Z,101586.19
2022-08-28T04:29:17.741Z,101577.47
2022-08-28T04:34:19.495Z,101575.66
2022-08-28T04:39:21.115Z,101564.31
2022-08-28T04:44:22.713Z,101574.78
2022-08-28T04:49:25.969Z,101588.84
2022-08-28T04:54:27.792Z,101599.78
2022-08-28T04:59:29.753Z,101598.47
2022-08-28T05:04:31.357Z,101604.00
2022-08-28T05:09:34.859Z,101604.66
2022-08-28T05:14:36.666Z,101602.72
2022-08-28T05:19:39.279Z,101605.91
2022-08-28T05:24:40.817Z,101611.28
2022-08-28T05:29:42.371Z,101602.97
2022-08-28T05:34:43.908Z,101603.53
2022-08-28T05:39:45.467Z,101605.06
2022-08-28T05:44:47.072Z,101610.31
2022-08-28T05:49:48.851Z,101601.56
2022-08-28T05:54:53.863Z,101609.88
2022-08-28T05:59:55.386Z,101610.47
2022-08-28T06:04:57.781Z,101617.78
2022-08-28T06:09:59.595Z,101614.06
2022-08-28T06:15:01.225Z,101617.97
2022-08-28T06:20:02.832Z,101610.84
2022-08-28T06:25:08.138Z,101615.59
2022-08-28T06:30:10.138Z,101615.13
2022-08-28T06:35:11.948Z,101615.78
2022-08-28T06:40:14.138Z,101612.91
2022-08-28T06:45:16.396Z,101604.69
2022-08-28T06:50:17.959Z,101618.44
2022-08-28T06:55:19.537Z,101624.00
2022-08-28T07:00:21.198Z,101629.25
2022-08-28T07:05:23.055Z,101621.94
2022-08-28T07:10:24.814Z,101628.19
2022-08-28T07:15:27.222Z,101629.78
2022-08-28T07:20:28.797Z,101630.41
2022-08-28T07:25:30.456Z,101632.53
2022-08-28T07:30:32.027Z,101640.38
2022-08-28T07:35:33.590Z,101638.53
2022-08-28T07:40:35.201Z,101643.09
2022-08-28T07:45:36.933Z,101644.75
2022-08-28T07:50:38.511Z,101640.84
2022-08-28T07:55:43.063Z,101642.06
2022-08-28T08:00:45.089Z,101646.88
2022-08-28T08:05:55.339Z,101641.25
2022-08-28T08:11:03.232Z,101654.06
2022-08-28T08:16:09.387Z,101652.56
2022-08-28T08:21:14.011Z,101653.88
2022-08-28T08:26:21.569Z,101652.22
2022-08-28T08:31:33.697Z,101658.06
2022-08-28T08:36:38.404Z,101661.16
2022-08-28T08:41:48.021Z,101668.94
2022-08-28T08:46:58.666Z,101661.97
2022-08-28T08:52:06.706Z,101664.25
2022-08-28T08:57:14.701Z,101672.16
2022-08-28T09:02:31.273Z,101659.38
2022-08-28T09:07:53.191Z,101669.81
2022-08-28T09:13:04.974Z,101673.50
2022-08-28T09:18:22.389Z,101667.00
2022-08-28T09:23:25.414Z,101670.31
2022-08-28T09:28:31.391Z,101662.97
2022-08-28T09:33:41.636Z,101664.75
2022-08-28T09:38:43.453Z,101660.78
2022-08-28T09:43:46.683Z,101657.56
2022-08-28T09:48:52.426Z,101671.63
2022-08-28T09:53:54.555Z,101669.78
2022-08-28T09:59:08.452Z,101665.34
2022-08-28T10:04:20.751Z,101665.00
2022-08-28T10:09:47.780Z,101657.75
2022-08-28T10:15:04.851Z,101659.22
2022-08-28T10:20:44.975Z,101658.41
2022-08-28T10:25:54.756Z,101649.16
2022-08-28T10:31:05.586Z,101661.44
2022-08-28T10:36:33.998Z,101661.78
2022-08-28T10:41:58.234Z,101658.91
2022-08-28T10:47:01.603Z,101658.28
2022-08-28T10:52:41.848Z,101655.03
2022-08-28T10:57:53.060Z,101650.78
2022-08-28T11:02:58.217Z,101654.53
2022-08-28T11:08:05.218Z,101657.13
2022-08-28T11:13:10.092Z,101659.00
2022-08-28T11:18:11.668Z,101655.31
2022-08-28T11:23:17.372Z,101671.50
2022-08-28T11:28:26.077Z,101668.47
2022-08-28T11:33:41.421Z,101660.81
2022-08-28T11:38:43.383Z,101659.56
2022-08-28T11:43:47.219Z,101671.13
2022-08-28T11:48:54.694Z,101679.47
2022-08-28T11:54:43.914Z,101673.47
2022-08-28T11:59:57.741Z,101662.88
2022-08-28T12:04:59.413Z,101651.81
2022-08-28T12:10:04.952Z,101652.41
2022-08-28T12:15:08.692Z,101668.78
2022-08-28T12:20:19.292Z,101675.19
2022-08-28T12:25:35.249Z,101672.13
2022-08-28T12:30:44.413Z,101673.16
2022-08-28T12:35:46.157Z,101664.94
2022-08-28T12:40:52.936Z,101670.09
2022-08-28T12:45:57.666Z,101665.72
2022-08-28T12:51:14.205Z,101666.56
2022-08-28T12:56:19.292Z,101665.63
2022-08-28T13:01:31.339Z,101680.44
2022-08-28T13:06:36.569Z,101666.34
2022-08-28T13:11:40.133Z,101672.94
2022-08-28T13:16:41.654Z,101662.13
2022-08-28T13:21:46.181Z,101671.03
2022-08-28T13:26:50.749Z,101669.78
2022-08-28T13:31:59.430Z,101679.06
2022-08-28T13:37:04.191Z,101672.44
2022-08-28T13:42:15.891Z,101677.69
2022-08-28T13:47:17.790Z,101680.63
2022-08-28T13:52:19.356Z,101681.72
2022-08-28T13:57:21.545Z,101670.06
2022-08-28T14:02:41.665Z,101663.34
2022-08-28T14:07:44.073Z,101676.78
2022-08-28T14:12:47.700Z,101665.38
2022-08-28T14:17:49.264Z,101660.41
2022-08-28T14:22:50.943Z,101673.34
2022-08-28T14:27:52.570Z,101671.78
2022-08-28T14:32:54.720Z,101662.00
2022-08-28T14:37:56.370Z,101674.19
2022-08-28T14:42:57.931Z,101674.13
2022-08-28T14:47:59.703Z,101669.13
2022-08-28T14:53:01.890Z,101671.41
2022-08-28T14:58:03.453Z,101677.34
2022-08-28T15:03:05.255Z,101673.38
2022-08-28T15:08:09.468Z,101679.88
2022-08-28T15:13:12.650Z,101670.81
2022-08-28T15:18:14.525Z,101694.63
2022-08-28T15:23:16.321Z,101689.72
2022-08-28T15:28:18.987Z,101692.50
2022-08-28T15:33:20.532Z,101685.91
2022-08-28T15:38:22.747Z,101688.59
2022-08-28T15:43:24.325Z,101696.19
2022-08-28T15:48:25.939Z,101691.44
2022-08-28T15:53:27.492Z,101688.25
2022-08-28T15:58:31.339Z,101702.56
2022-08-28T16:03:32.839Z,101716.31
2022-08-28T16:08:34.453Z,101710.38
2022-08-28T16:13:36.211Z,101703.72
2022-08-28T16:18:37.843Z,101714.59
2022-08-28T16:23:40.099Z,101715.06
2022-08-28T16:28:43.630Z,101720.16
2022-08-28T16:33:45.271Z,101709.16
2022-08-28T16:38:49.367Z,101712.75
2022-08-28T16:44:01.350Z,101701.13
2022-08-28T16:49:03.048Z,101687.63
2022-08-28T16:54:04.651Z,101697.13
2022-08-28T16:59:10.440Z,101694.19
2022-08-28T17:04:12.265Z,101702.16
2022-08-28T17:09:13.923Z,101709.41
2022-08-28T17:14:15.514Z,101701.22
2022-08-28T17:19:17.837Z,101704.97
2022-08-28T17:24:19.614Z,101705.25
2022-08-28T17:29:21.261Z,101716.97
2022-08-28T17:34:25.763Z,101707.81
2022-08-28T17:39:31.358Z,101704.56
2022-08-28T17:44:33.310Z,101701.13
2022-08-28T17:49:34.979Z,101717.94
2022-08-28T17:54:36.615Z,101710.59
2022-08-28T17:59:38.284Z,101708.97
2022-08-28T18:04:39.868Z,101713.41
2022-08-28T18:09:41.644Z,101710.25
2022-08-28T18:14:43.412Z,101718.84
2022-08-28T18:19:45.074Z,101728.47
2022-08-28T18:24:52.478Z,101732.16
2022-08-28T18:29:54.427Z,101731.84
2022-08-28T18:34:56.064Z,101738.31
2022-08-28T18:39:57.642Z,101742.75
2022-08-28T18:45:01.647Z,101729.16
2022-08-28T18:50:05.420Z,101737.09
2022-08-28T18:55:08.555Z,101738.97
2022-08-28T19:00:10.998Z,101744.38
2022-08-28T19:05:13.312Z,101745.66
2022-08-28T19:10:32.017Z,101744.09
2022-08-28T19:15:35.696Z,101752.16
2022-08-28T19:20:37.688Z,101758.53
2022-08-28T19:25:39.243Z,101757.88
2022-08-28T19:30:40.857Z,101764.56
2022-08-28T19:35:42.789Z,101758.00
2022-08-28T19:40:45.449Z,101762.34
2022-08-28T19:45:47.220Z,101745.91
2022-08-28T19:50:48.918Z,101756.63
2022-08-28T19:55:51.813Z,101761.25
2022-08-28T20:00:53.369Z,101758.94
2022-08-28T20:05:55.739Z,101744.88
2022-08-28T20:10:57.802Z,101763.03
2022-08-28T20:16:04.889Z,101759.53
2022-08-28T20:21:10.944Z,101752.25
2022-08-28T20:26:13.530Z,101751.53
2022-08-28T20:31:17.869Z,101741.63
2022-08-28T20:36:21.210Z,101752.13
2022-08-28T20:41:24.099Z,101751.53
2022-08-28T20:46:25.755Z,101757.66
2022-08-28T20:51:46.236Z,101762.63
2022-08-28T20:56:49.123Z,101765.16
2022-08-28T21:01:51.487Z,101770.34
2022-08-28T21:06:53.074Z,101779.78
2022-08-28T21:11:54.724Z,101783.31
2022-08-28T21:16:57.436Z,101785.47
2022-08-28T21:21:59.528Z,101795.00
2022-08-28T21:27:02.231Z,101787.06
2022-08-28T21:32:04.344Z,101794.88
2022-08-28T21:37:06.420Z,101802.63
2022-08-28T21:42:08.066Z,101800.63
2022-08-28T21:47:09.671Z,101801.50
2022-08-28T21:52:11.431Z,101807.72
2022-08-28T21:57:12.990Z,101809.50
2022-08-28T22:02:14.590Z,101812.28
2022-08-28T22:07:17.768Z,101815.06
2022-08-28T22:12:19.645Z,101819.56
2022-08-28T22:17:21.408Z,101821.50
2022-08-28T22:22:41.377Z,101820.84
2022-08-28T22:27:43.000Z,101824.53
2022-08-28T22:32:45.300Z,101825.63
2022-08-28T22:37:47.179Z,101812.59
2022-08-28T22:42:50.434Z,101809.63
2022-08-28T22:47:52.803Z,101804.13
2022-08-28T22:52:54.477Z,101807.72
2022-08-28T22:57:56.090Z,101801.25
2022-08-28T23:02:58.235Z,101805.38
2022-08-28T23:07:59.781Z,101797.56
2022-08-28T23:13:01.318Z,101805.50
2022-08-28T23:18:02.972Z,101799.81
2022-08-28T23:23:05.816Z,101797.66
2022-08-28T23:28:07.570Z,101808.44
2022-08-28T23:33:09.272Z,101792.97
2022-08-28T23:38:10.953Z,101797.03
2022-08-28T23:43:15.466Z,101806.78
2022-08-28T23:48:17.747Z,101810.50
2022-08-28T23:53:19.556Z,101811.44
2022-08-28T23:58:22.519Z,101810.03
